Time;durP1;ratioP1;P1;durP2;ratioP2;P2;SDS_P1;SDS_P2;PMS_P1;PMS_P2;Temp;Humidity;BMP_temperature;BMP_pressure;BME280_temperature;BME280_humidity;BME280_pressure;Samples;Min_cycle;Max_cycle;Signal;HPM_P1;HPM_P2
2022/06/27 00:04:32;;;;;;;13.77;9.57;;;;;;;17.10;100.00;101543.25;10147001;28;20060;-75
2022/06/27 00:09:33;;;;;;;11.40;9.15;;;;;;;17.20;100.00;101541.53;10184537;28;20086;-74
2022/06/27 00:14:34;;;;;;;13.82;11.32;;;;;;;17.27;100.00;101554.03;10199332;28;20031;-75
2022/06/27 00:19:34;;;;;;;13.57;10.38;;;;;;;17.22;100.00;101544.88;10184958;28;20070;-76
2022/06/27 00:24:35;;;;;;;15.68;11.23;;;;;;;17.14;100.00;101544.34;10175509;29;20123;-75
2022/06/27 00:29:35;;;;;;;12.82;11.20;;;;;;;17.19;100.00;101526.78;10157104;29;20055;-74
2022/06/27 00:34:36;;;;;;;14.15;11.82;;;;;;;17.28;100.00;101539.03;10158532;29;20032;-74
2022/06/27 00:39:37;;;;;;;16.92;13.32;;;;;;;17.24;100.00;101532.34;10174852;28;20043;-74
2022/06/27 00:44:42;;;;;;;15.93;12.52;;;;;;;17.12;100.00;101512.38;10150392;29;20063;-73
2022/06/27 00:49:43;;;;;;;16.90;12.38;;;;;;;17.13;100.00;101509.28;10146102;29;20059;-73
2022/06/27 00:54:45;;;;;;;16.02;12.13;;;;;;;17.10;100.00;101509.84;10148484;28;20031;-73
2022/06/27 00:59:45;;;;;;;15.13;12.48;;;;;;;17.02;100.00;101524.34;10183872;28;20063;-73
2022/06/27 01:04:46;;;;;;;16.13;12.82;;;;;;;16.79;100.00;101519.38;10168535;28;20099;-73
2022/06/27 01:09:46;;;;;;;19.17;15.50;;;;;;;16.90;100.00;101532.16;10170084;28;20116;-73
2022/06/27 01:14:47;;;;;;;21.85;15.38;;;;;;;16.88;100.00;101545.50;10155740;28;20052;-73
2022/06/27 01:19:47;;;;;;;19.58;15.30;;;;;;;16.84;100.00;101552.75;10184161;28;20067;-71
2022/06/27 01:24:48;;;;;;;17.90;15.07;;;;;;;16.73;100.00;101533.25;10200180;28;20048;-71
2022/06/27 01:29:48;;;;;;;19.42;15.82;;;;;;;16.86;100.00;101562.47;10168288;28;20043;-70
2022/06/27 01:34:49;;;;;;;19.88;15.60;;;;;;;16.87;100.00;101555.81;10199661;28;20492;-72
2022/06/27 01:39:49;;;;;;;17.00;14.05;;;;;;;16.74;100.00;101536.88;10215328;28;20050;-71
2022/06/27 01:44:50;;;;;;;16.17;14.48;;;;;;;16.66;100.00;101546.63;10198744;28;20043;-70
2022/06/27 01:49:50;;;;;;;18.30;13.65;;;;;;;16.67;100.00;101556.63;10215165;28;20057;-70
2022/06/27 01:54:52;;;;;;;16.58;13.82;;;;;;;16.63;100.00;101563.84;10215565;28;20044;-71
2022/06/27 01:59:53;;;;;;;19.17;14.93;;;;;;;16.55;100.00;101575.53;10214545;28;20762;-70
2022/06/27 02:04:54;;;;;;;19.08;15.48;;;;;;;16.54;100.00;101576.66;10214817;28;20072;-70
2022/06/27 02:09:54;;;;;;;19.60;16.30;;;;;;;16.44;100.00;101562.75;10185195;29;20063;-68
2022/06/27 02:14:54;;;;;;;19.75;15.75;;;;;;;16.52;100.00;101570.53;10177513;29;20165;-70
2022/06/27 02:19:55;;;;;;;18.48;15.43;;;;;;;16.46;100.00;101557.75;10176060;29;20040;-70
2022/06/27 02:24:55;;;;;;;18.15;16.10;;;;;;;16.54;100.00;101585.00;10189047;28;20047;-70
2022/06/27 02:29:56;;;;;;;20.63;16.50;;;;;;;16.54;100.00;101585.00;10159422;28;20046;-71
2022/06/27 02:34:57;;;;;;;21.48;16.55;;;;;;;16.55;100.00;101568.00;10174087;28;20171;-70
2022/06/27 02:39:57;;;;;;;20.58;17.77;;;;;;;16.22;100.00;101519.38;10189700;28;20040;-70
2022/06/27 02:44:58;;;;;;;17.50;15.20;;;;;;;16.49;100.00;101585.78;10173342;29;20048;-70
2022/06/27 02:49:58;;;;;;;22.38;16.65;;;;;;;16.46;100.00;101599.44;10191363;29;20041;-69
2022/06/27 02:55:03;;;;;;;19.77;16.45;;;;;;;16.52;100.00;101603.88;10190367;28;20051;-69
2022/06/27 03:00:05;;;;;;;19.95;15.60;;;;;;;16.52;100.00;101612.22;10182725;29;20588;-70
2022/06/27 03:05:05;;;;;;;19.23;15.55;;;;;;;16.46;100.00;101613.34;10189557;28;20044;-69
2022/06/27 03:10:07;;;;;;;19.80;14.13;;;;;;;16.53;100.00;101599.97;10206242;28;20094;-69
2022/06/27 03:15:08;;;;;;;14.05;11.20;;;;;;;16.54;100.00;101593.31;10206658;28;20205;-70
2022/06/27 03:20:09;;;;;;;15.50;12.55;;;;;;;16.53;100.00;101577.75;10197270;29;20067;-71
2022/06/27 03:25:09;;;;;;;16.35;11.93;;;;;;;16.38;100.00;101561.06;10181155;29;20071;-70
2022/06/27 03:30:10;;;;;;;16.92;12.18;;;;;;;16.28;100.00;101550.78;10214570;28;20510;-72
2022/06/27 03:35:11;;;;;;;6.93;6.20;;;;;;;16.22;100.00;101560.22;10220906;28;20127;-71
2022/06/27 03:40:11;;;;;;;9.23;7.68;;;;;;;16.15;100.00;101563.28;10220040;28;20058;-72
2022/06/27 03:45:12;;;;;;;8.82;7.93;;;;;;;16.09;100.00;101536.59;10166575;29;20071;-72
2022/06/27 03:50:13;;;;;;;10.75;8.02;;;;;;;15.95;100.00;101544.59;10165899;29;20088;-72
2022/06/27 03:55:13;;;;;;;8.48;7.57;;;;;;;15.76;100.00;101568.44;10182080;29;20052;-73
2022/06/27 04:00:15;;;;;;;7.78;6.65;;;;;;;15.78;100.00;101571.78;10178783;29;20108;-74
2022/06/27 04:05:15;;;;;;;8.45;5.35;;;;;;;15.68;100.00;101567.81;10181276;29;20055;-74
2022/06/27 04:10:16;;;;;;;8.30;4.97;;;;;;;15.66;100.00;101564.47;10178838;29;20048;-75
2022/06/27 04:15:16;;;;;;;7.50;5.05;;;;;;;15.49;100.00;101517.50;10193434;28;20071;-74
2022/06/27 04:20:17;;;;;;;6.38;4.68;;;;;;;15.57;100.00;101540.31;10221108;28;20039;-72
2022/06/27 04:25:17;;;;;;;6.60;5.30;;;;;;;15.68;100.00;101555.88;10221848;28;20040;-72
2022/06/27 04:30:18;;;;;;;7.22;5.70;;;;;;;15.73;100.00;101559.56;10190263;29;20155;-75
2022/06/27 04:35:18;;;;;;;6.30;5.70;;;;;;;15.72;100.00;101563.41;10179170;29;20056;-73
2022/06/27 04:40:19;;;;;;;21.08;5.97;;;;;;;15.59;100.00;101540.88;10178335;29;20044;-74
2022/06/27 04:45:20;;;;;;;6.47;5.55;;;;;;;15.76;100.00;101558.16;10147825;29;20036;-74
2022/06/27 04:50:22;;;;;;;7.60;6.80;;;;;;;15.70;100.00;101531.47;10183012;28;20497;-73
2022/06/27 04:55:24;;;;;;;10.05;6.55;;;;;;;15.82;100.00;101547.91;10180185;29;20044;-74
2022/06/27 05:00:24;;;;;;;15.00;13.40;;;;;;;15.80;100.00;101517.66;10175254;28;20040;-74
2022/06/27 05:05:25;;;;;;;18.70;14.55;;;;;;;15.86;100.00;101504.63;10217473;28;20082;-72
2022/06/27 05:10:25;;;;;;;15.73;10.77;;;;;;;15.93;100.00;101500.44;10185693;28;20044;-69
2022/06/27 05:15:26;;;;;;;15.98;10.82;;;;;;;16.00;100.00;101469.66;10180476;29;20218;-72
2022/06/27 05:20:28;;;;;;;15.23;10.15;;;;;;;16.07;100.00;101458.25;10178485;29;20172;-72
2022/06/27 05:25:28;;;;;;;15.50;10.88;;;;;;;16.05;100.00;101444.63;10177586;29;20055;-71
2022/06/27 05:30:30;;;;;;;11.95;9.60;;;;;;;16.37;100.00;101476.88;10177578;29;20044;-71
2022/06/27 05:35:30;;;;;;;11.88;10.38;;;;;;;16.45;100.00;101464.34;10194887;28;20086;-71
2022/06/27 05:40:33;;;;;;;11.75;9.70;;;;;;;16.52;100.00;101453.78;10216088;28;20054;-71
2022/06/27 05:45:34;;;;;;;13.60;10.35;;;;;;;16.52;100.00;101414.88;10200574;28;20042;-70
2022/06/27 05:50:34;;;;;;;13.95;10.13;;;;;;;16.71;100.00;101406.78;10181997;28;20040;-71
2022/06/27 05:55:35;;;;;;;12.30;10.32;;;;;;;16.77;100.00;101404.81;10176464;29;20043;-70
2022/06/27 06:00:36;;;;;;;16.42;11.77;;;;;;;16.86;100.00;101414.25;10173575;28;20428;-71
2022/06/27 06:05:41;;;;;;;14.00;12.20;;;;;;;16.94;100.00;101399.75;10191714;29;20040;-71
2022/06/27 06:10:41;;;;;;;15.70;13.25;;;;;;;17.01;100.00;101405.00;10177765;29;20040;-70
2022/06/27 06:15:42;;;;;;;12.00;10.57;;;;;;;17.00;100.00;101420.06;10210454;28;20520;-70
2022/06/27 06:20:43;;;;;;;13.88;10.98;;;;;;;16.89;100.00;101402.56;10217396;28;20043;-70
2022/06/27 06:25:43;;;;;;;14.63;10.63;;;;;;;17.10;100.00;101426.41;10206711;28;20119;-70
2022/06/27 06:30:44;;;;;;;14.23;9.75;;;;;;;17.06;100.00;101428.09;10159539;29;20040;-70
2022/06/27 06:35:45;;;;;;;13.65;10.43;;;;;;;16.98;100.00;101428.66;10174338;29;20110;-69
2022/06/27 06:40:46;;;;;;;12.55;8.98;;;;;;;16.90;100.00;101434.81;10180541;28;20051;-70
2022/06/27 06:45:46;;;;;;;13.23;10.38;;;;;;;16.91;100.00;101472.66;10176235;29;20107;-70
2022/06/27 06:50:46;;;;;;;13.57;10.93;;;;;;;16.84;100.00;101486.84;10189851;29;20131;-70
2022/06/27 06:55:48;;;;;;;15.07;10.38;;;;;;;16.83;100.00;101501.03;10175414;29;20052;-70
2022/06/27 07:00:49;;;;;;;11.82;10.30;;;;;;;16.77;100.00;101488.22;10175786;29;20535;-69
2022/06/27 07:05:50;;;;;;;15.80;12.90;;;;;;;16.48;100.00;101419.34;10188678;28;20051;-68
2022/06/27 07:10:51;;;;;;;15.73;12.93;;;;;;;16.84;100.00;101484.06;10214278;28;20657;-66
2022/06/27 07:15:52;;;;;;;16.17;12.95;;;;;;;16.94;100.00;101516.56;10216572;28;20046;-70
2022/06/27 07:20:52;;;;;;;13.88;12.20;;;;;;;16.99;100.00;101513.78;10179490;29;20055;-70
2022/06/27 07:25:53;;;;;;;14.50;11.73;;;;;;;17.15;100.00;101532.09;10186237;28;20044;-70
2022/06/27 07:30:55;;;;;;;11.32;10.13;;;;;;;17.03;100.00;101536.28;10231977;28;20048;-70
2022/06/27 07:35:56;;;;;;;10.27;9.20;;;;;;;16.99;100.00;101530.50;10228533;28;20039;-70
2022/06/27 07:40:57;;;;;;;10.48;9.18;;;;;;;17.09;100.00;101552.69;10232796;28;20031;-70
2022/06/27 07:45:58;;;;;;;12.60;8.90;;;;;;;17.05;100.00;101561.88;10238537;28;20047;-70
2022/06/27 07:50:59;;;;;;;10.65;9.07;;;;;;;16.97;100.00;101571.66;10222486;28;20459;-70
2022/06/27 07:56:00;;;;;;;10.73;9.65;;;;;;;16.98;100.00;101548.28;10211366;28;20059;-70
2022/06/27 08:01:02;;;;;;;11.30;9.77;;;;;;;17.20;100.00;101564.66;10196902;28;20040;-70
2022/06/27 08:06:05;;;;;;;12.10;9.20;;;;;;;17.32;100.00;101545.69;10186482;28;20107;-70
2022/06/27 08:11:07;;;;;;;11.40;9.93;;;;;;;17.58;100.00;101520.53;10225686;28;20070;-72
2022/06/27 08:16:08;;;;;;;9.93;8.98;;;;;;;17.93;100.00;101511.16;10237021;28;20039;-72
2022/06/27 08:21:08;;;;;;;7.90;6.70;;;;;;;18.18;100.00;101514.88;10234518;28;20138;-73
2022/06/27 08:26:10;;;;;;;10.07;7.50;;;;;;;18.19;100.00;101512.94;10240852;28;20035;-72
2022/06/27 08:31:12;;;;;;;8.35;7.55;;;;;;;18.15;100.00;101516.31;10249359;28;20043;-72
2022/06/27 08:36:14;;;;;;;11.63;8.13;;;;;;;18.14;100.00;101511.03;10213455;28;20516;-71
2022/06/27 08:41:14;;;;;;;8.95;8.05;;;;;;;18.03;100.00;101492.72;10235434;28;20039;-71
2022/06/27 08:46:16;;;;;;;8.63;7.65;;;;;;;18.00;100.00;101477.41;10221405;28;20044;-71
2022/06/27 08:51:18;;;;;;;9.20;8.05;;;;;;;18.06;100.00;101472.63;10246000;28;20131;-71
2022/06/27 08:56:19;;;;;;;10.70;9.50;;;;;;;18.27;100.00;101490.88;10217195;28;20043;-70
2022/06/27 09:01:23;;;;;;;9.65;8.65;;;;;;;18.17;100.00;101504.88;10219943;28;20131;-71
2022/06/27 09:06:24;;;;;;;8.50;7.65;;;;;;;17.98;100.00;101513.06;10225702;28;20067;-71
2022/06/27 09:11:28;;;;;;;10.50;9.50;;;;;;;17.78;100.00;101525.16;10236973;28;20043;-70
2022/06/27 09:16:29;;;;;;;12.02;8.95;;;;;;;17.50;100.00;101538.66;10217539;28;20046;-71
2022/06/27 09:21:29;;;;;;;10.88;8.55;;;;;;;17.40;100.00;101552.59;10235724;28;20041;-70
2022/06/27 09:26:38;;;;;;;10.73;9.50;;;;;;;17.41;100.00;101547.91;10228069;28;20173;-70
2022/06/27 09:31:39;;;;;;;10.70;9.43;;;;;;;17.49;100.00;101584.31;10210279;28;20044;-71
2022/06/27 09:36:51;;;;;;;14.98;10.32;;;;;;;17.49;100.00;101589.88;10214400;28;20044;-71
2022/06/27 09:41:56;;;;;;;13.43;11.75;;;;;;;17.50;100.00;101596.28;10177981;29;20043;-71
2022/06/27 09:47:01;;;;;;;12.05;10.80;;;;;;;17.30;100.00;101602.72;10192804;29;20045;-71
2022/06/27 09:52:09;;;;;;;16.42;12.60;;;;;;;17.34;100.00;101640.00;10191797;29;20063;-71
2022/06/27 09:57:10;;;;;;;13.85;12.00;;;;;;;17.35;100.00;101628.59;10191604;29;20040;-71
2022/06/27 10:02:13;;;;;;;14.70;12.77;;;;;;;17.38;100.00;101632.78;10178748;29;20047;-70
2022/06/27 10:07:15;;;;;;;13.40;12.05;;;;;;;17.43;100.00;101643.91;10213065;28;20107;-70
2022/06/27 10:12:22;;;;;;;13.43;12.02;;;;;;;17.51;100.00;101637.75;10214654;28;20040;-70
2022/06/27 10:17:23;;;;;;;12.77;10.88;;;;;;;17.57;100.00;101646.94;10217037;28;20525;-70
2022/06/27 10:22:26;;;;;;;13.68;10.13;;;;;;;17.66;100.00;101631.31;10198819;28;20039;-72
2022/06/27 10:27:29;;;;;;;13.85;10.73;;;;;;;18.12;100.00;101602.44;10232657;28;20047;-71
2022/06/27 10:32:35;;;;;;;9.10;8.20;;;;;;;18.69;100.00;101600.09;10236860;28;20453;-74
2022/06/27 10:37:38;;;;;;;6.10;5.50;;;;;;;19.02;100.00;101603.19;10234539;28;20051;-73
2022/06/27 10:42:45;;;;;;;5.65;5.15;;;;;;;18.99;100.00;101610.16;10176883;28;20036;-74
2022/06/27 10:47:49;;;;;;;7.15;6.13;;;;;;;19.05;100.00;101608.16;10190203;28;20583;-73
2022/06/27 10:52:51;;;;;;;6.03;5.30;;;;;;;19.05;100.00;101591.44;10231120;28;20082;-73
2022/06/27 10:57:53;;;;;;;4.78;4.30;;;;;;;19.27;100.00;101602.09;10199975;28;20052;-72
2022/06/27 11:02:54;;;;;;;6.93;4.80;;;;;;;19.46;100.00;101610.53;10198571;28;20111;-73
2022/06/27 11:07:54;;;;;;;3.70;2.60;;;;;;;19.46;100.00;101611.38;10198620;28;20051;-73
2022/06/27 11:12:55;;;;;;;2.33;1.98;;;;;;;19.42;100.00;101596.34;10213073;28;20032;-73
2022/06/27 11:17:55;;;;;;;4.03;2.50;;;;;;;19.32;100.00;101613.19;10199357;28;20064;-73
2022/06/27 11:22:58;;;;;;;2.85;2.55;;;;;;;19.16;100.00;101598.56;10221850;28;20039;-73
2022/06/27 11:33:25;;;;;;;3.22;2.13;;;;;;;18.92;100.00;101596.56;10190930;29;20040;-72
2022/06/27 11:38:30;;;;;;;2.70;2.50;;;;;;;19.17;100.00;101605.81;10185560;28;20119;-72
2022/06/27 11:43:50;;;;;;;4.97;3.22;;;;;;;19.31;100.00;101597.59;10216970;28;20044;-72
2022/06/27 11:48:57;;;;;;;5.95;4.45;;;;;;;19.61;100.00;101593.59;10180834;29;20059;-72
2022/06/27 11:54:03;;;;;;;7.68;5.32;;;;;;;19.94;100.00;101579.78;10181989;29;20088;-72
2022/06/27 11:59:04;;;;;;;7.60;6.15;;;;;;;20.28;100.00;101584.34;10206309;28;20460;-72
2022/06/27 12:04:07;;;;;;;6.78;5.20;;;;;;;20.39;100.00;101588.63;10220594;28;20071;-72
2022/06/27 12:09:08;;;;;;;7.47;5.28;;;;;;;20.36;100.00;101594.81;10217249;28;20505;-71
2022/06/27 12:14:08;;;;;;;6.82;5.10;;;;;;;20.22;100.00;101580.78;10181211;28;20036;-71
2022/06/27 12:19:09;;;;;;;8.57;5.80;;;;;;;20.16;100.00;101577.22;10218942;28;20138;-72
2022/06/27 12:24:10;;;;;;;6.05;5.55;;;;;;;19.88;100.00;101576.22;10202985;28;20115;-72
2022/06/27 12:29:10;;;;;;;8.45;5.82;;;;;;;19.51;100.00;101576.97;10220113;28;20135;-72
2022/06/27 12:34:11;;;;;;;7.28;4.78;;;;;;;19.26;100.00;101583.66;10198815;28;20084;-72
2022/06/27 12:39:11;;;;;;;5.88;4.53;;;;;;;19.10;100.00;101580.19;10146020;29;20108;-72
2022/06/27 12:44:12;;;;;;;5.55;4.78;;;;;;;19.05;100.00;101592.25;10193381;29;20040;-71
2022/06/27 12:49:12;;;;;;;5.63;4.80;;;;;;;18.99;100.00;101590.63;10148654;29;20036;-71
2022/06/27 12:54:13;;;;;;;4.80;4.20;;;;;;;19.04;100.00;101586.97;10199342;28;20059;-69
2022/06/27 12:59:13;;;;;;;6.45;4.78;;;;;;;19.07;100.00;101598.38;10220723;28;21957;-71
2022/06/27 13:04:14;;;;;;;4.63;4.22;;;;;;;19.03;100.00;101583.34;10216949;28;20050;-71
2022/06/27 13:09:15;;;;;;;6.13;5.00;;;;;;;18.95;100.00;101590.41;10192198;29;20041;-72
2022/06/27 13:14:16;;;;;;;6.60;5.80;;;;;;;19.03;100.00;101619.63;10176055;29;20041;-71
2022/06/27 13:19:16;;;;;;;7.93;5.45;;;;;;;18.96;100.00;101627.50;10192297;29;20068;-72
2022/06/27 13:24:17;;;;;;;10.55;5.20;;;;;;;19.03;100.00;101625.19;10182138;28;20063;-72
2022/06/27 13:29:17;;;;;;;8.93;5.78;;;;;;;19.03;100.00;101628.00;10216745;28;20072;-71
2022/06/27 13:34:18;;;;;;;7.03;6.18;;;;;;;19.10;100.00;101634.09;10210055;28;20056;-71
2022/06/27 13:39:19;;;;;;;8.65;7.72;;;;;;;19.00;100.00;101625.81;10180957;28;20039;-71
2022/06/27 13:44:20;;;;;;;11.07;8.43;;;;;;;19.00;100.00;101623.00;10239825;28;20046;-71
2022/06/27 13:49:20;;;;;;;10.98;7.63;;;;;;;18.87;100.00;101629.25;10243670;28;20040;-71
2022/06/27 13:54:21;;;;;;;8.43;6.97;;;;;;;18.59;100.00;101623.31;10224482;28;20032;-70
2022/06/27 13:59:22;;;;;;;8.88;5.38;;;;;;;18.54;100.00;101654.00;10209106;28;20051;-70
2022/06/27 14:04:22;;;;;;;8.57;6.05;;;;;;;18.05;100.00;101579.66;10178473;29;20043;-70
2022/06/27 14:09:22;;;;;;;6.75;5.80;;;;;;;18.49;100.00;101652.09;10177326;29;20052;-71
2022/06/27 14:14:23;;;;;;;7.03;5.47;;;;;;;18.62;100.00;101650.59;10177162;29;20040;-71
2022/06/27 14:19:23;;;;;;;9.27;6.40;;;;;;;18.69;100.00;101662.28;10192401;29;20035;-71
2022/06/27 14:24:24;;;;;;;6.78;6.07;;;;;;;18.59;100.00;101679.09;10178410;29;20055;-71
2022/06/27 14:29:24;;;;;;;8.10;6.03;;;;;;;18.48;100.00;101660.75;10176887;29;20051;-70
2022/06/27 14:34:25;;;;;;;8.82;4.70;;;;;;;18.34;100.00;101650.25;10175304;29;20080;-71
2022/06/27 14:39:25;;;;;;;5.40;3.63;;;;;;;18.08;100.00;101638.38;10206206;28;20043;-71
2022/06/27 14:44:26;;;;;;;5.70;2.95;;;;;;;17.89;100.00;101635.41;10194793;28;20103;-71
2022/06/27 14:49:26;;;;;;;3.85;3.22;;;;;;;17.63;100.00;101634.69;10195344;28;20055;-70
2022/06/27 14:54:27;;;;;;;6.10;3.15;;;;;;;17.45;100.00;101632.50;10222773;28;20044;-71
2022/06/27 14:59:28;;;;;;;4.70;2.85;;;;;;;17.53;100.00;101654.19;10228761;28;20068;-71
2022/06/27 15:04:28;;;;;;;7.82;3.00;;;;;;;17.55;100.00;101658.34;10226909;28;20050;-72
2022/06/27 15:09:29;;;;;;;4.30;2.78;;;;;;;17.88;100.00;101672.78;10227382;28;20046;-71
2022/06/27 15:14:29;;;;;;;3.05;2.70;;;;;;;18.28;100.00;101662.53;10228721;28;20520;-71
2022/06/27 15:19:30;;;;;;;3.67;2.35;;;;;;;19.08;100.00;101668.97;10227485;28;20040;-70
2022/06/27 15:24:30;;;;;;;3.80;2.00;;;;;;;19.94;100.00;101672.84;10229179;28;20042;-71
2022/06/27 15:29:31;;;;;;;4.60;2.75;;;;;;;20.59;100.00;101662.19;10228047;28;20048;-72
2022/06/27 15:34:31;;;;;;;3.35;1.85;;;;;;;21.08;100.00;101642.06;10228697;28;20032;-72
2022/06/27 15:39:32;;;;;;;4.38;2.13;;;;;;;21.19;100.00;101659.56;10210505;28;20059;-72
2022/06/27 15:44:32;;;;;;;3.47;1.60;;;;;;;20.86;100.00;101655.94;10227784;28;20090;-71
2022/06/27 15:49:33;;;;;;;5.25;1.95;;;;;;;20.48;100.00;101667.09;10240119;28;20042;-71
2022/06/27 15:54:33;;;;;;;2.53;1.88;;;;;;;20.21;100.00;101660.19;10249528;28;20094;-71
2022/06/27 15:59:34;;;;;;;3.67;1.80;;;;;;;20.04;100.00;101668.25;10246609;28;20408;-70
2022/06/27 16:04:34;;;;;;;2.85;2.03;;;;;;;19.87;100.00;101679.94;10225895;28;20563;-71
2022/06/27 16:09:35;;;;;;;2.67;2.25;;;;;;;19.69;100.00;101687.09;10225691;28;20039;-70
2022/06/27 16:14:35;;;;;;;2.72;2.25;;;;;;;19.34;100.00;101689.94;10202876;28;20048;-70
2022/06/27 16:19:35;;;;;;;3.75;2.70;;;;;;;19.00;100.00;101673.25;10193063;28;20043;-70
2022/06/27 16:24:36;;;;;;;3.25;2.28;;;;;;;18.73;100.00;101679.28;10217494;28;20036;-70
2022/06/27 16:29:39;;;;;;;4.40;2.22;;;;;;;18.48;100.00;101683.03;10192144;28;20040;-70
2022/06/27 16:34:39;;;;;;;3.85;2.47;;;;;;;18.30;100.00;101702.13;10208408;28;20047;-71
2022/06/27 16:39:40;;;;;;;3.38;2.60;;;;;;;18.14;100.00;101708.88;10219095;28;20032;-71
2022/06/27 16:44:40;;;;;;;3.45;2.80;;;;;;;18.04;100.00;101720.06;10217812;28;20055;-70
2022/06/27 16:49:41;;;;;;;4.32;3.08;;;;;;;17.90;100.00;101720.69;10199070;28;20042;-70
2022/06/27 16:54:42;;;;;;;6.10;3.45;;;;;;;17.86;100.00;101733.50;10213668;28;20044;-71
2022/06/27 16:59:42;;;;;;;5.78;3.50;;;;;;;17.88;100.00;101730.41;10198746;28;20046;-70
2022/06/27 17:04:43;;;;;;;4.40;3.92;;;;;;;17.93;100.00;101742.38;10184733;28;20039;-71
2022/06/27 17:09:43;;;;;;;6.00;4.22;;;;;;;17.98;100.00;101757.41;10218369;28;20063;-70
2022/06/27 17:14:44;;;;;;;5.55;4.43;;;;;;;17.91;100.00;101772.47;10216210;28;20051;-70
2022/06/27 17:19:44;;;;;;;7.30;5.10;;;;;;;17.74;100.00;101753.25;10197019;28;20032;-71
2022/06/27 17:24:45;;;;;;;6.40;5.13;;;;;;;17.80;100.00;101751.31;10218472;28;20356;-71
2022/06/27 17:29:45;;;;;;;5.88;4.95;;;;;;;17.80;100.00;101768.03;10217613;28;20087;-71
2022/06/27 17:34:47;;;;;;;5.20;4.65;;;;;;;17.85;100.00;101748.53;10209860;28;20043;-71
2022/06/27 17:39:48;;;;;;;6.72;5.32;;;;;;;17.94;100.00;101752.41;10220626;28;20060;-71
2022/06/27 17:44:48;;;;;;;7.80;5.00;;;;;;;18.01;100.00;101746.53;10176350;28;20441;-69
2022/06/27 17:49:49;;;;;;;8.13;4.80;;;;;;;17.79;100.00;101771.09;10175934;29;20063;-71
2022/06/27 17:54:49;;;;;;;3.42;3.00;;;;;;;16.82;100.00;101733.78;10171044;28;20071;-72
2022/06/27 17:59:53;;;;;;;4.20;3.17;;;;;;;16.64;100.00;101750.94;10173000;28;20047;-72
2022/06/27 18:04:55;;;;;;;3.10;2.22;;;;;;;16.23;100.00;101756.38;10158396;29;20112;-71
2022/06/27 18:09:55;;;;;;;6.35;2.78;;;;;;;15.99;100.00;101767.91;10173549;29;20066;-72
2022/06/27 18:14:57;;;;;;;3.90;2.47;;;;;;;15.86;100.00;101768.41;10179140;28;20044;-71
2022/06/27 18:19:58;;;;;;;6.82;3.22;;;;;;;15.68;100.00;101756.56;10212184;28;20035;-71
2022/06/27 18:24:59;;;;;;;5.95;2.92;;;;;;;15.34;100.00;101703.34;10214019;28;20063;-71
2022/06/27 18:29:59;;;;;;;4.43;2.42;;;;;;;15.58;100.00;101739.03;10196604;28;20087;-71
2022/06/27 18:34:59;;;;;;;4.80;2.30;;;;;;;15.47;100.00;101743.66;10170708;28;20043;-71
2022/06/27 18:40:00;;;;;;;3.25;2.10;;;;;;;15.57;100.00;101768.72;10181841;28;20040;-72
2022/06/27 18:45:00;;;;;;;5.65;2.10;;;;;;;15.49;100.00;101789.47;10197824;28;20063;-72
2022/06/27 18:50:01;;;;;;;5.20;2.05;;;;;;;15.40;100.00;101773.56;10186823;28;20049;-71
2022/06/27 18:55:02;;;;;;;5.10;2.40;;;;;;;15.44;100.00;101783.03;10170102;28;20035;-71
2022/06/27 19:00:04;;;;;;;8.18;2.58;;;;;;;15.44;100.00;101788.59;10184332;28;20051;-72
2022/06/27 19:05:05;;;;;;;5.13;2.55;;;;;;;15.31;100.00;101773.22;10212277;28;20043;-71
2022/06/27 19:10:06;;;;;;;3.55;2.50;;;;;;;15.45;100.00;101790.28;10181736;28;20040;-71
2022/06/27 19:15:07;;;;;;;3.80;2.80;;;;;;;15.41;100.00;101789.97;10197304;28;20051;-72
2022/06/27 19:20:09;;;;;;;4.93;2.90;;;;;;;15.47;100.00;101804.72;10196969;28;20031;-72
2022/06/27 19:25:09;;;;;;;3.80;2.78;;;;;;;15.41;100.00;101797.44;10212904;28;20451;-72
2022/06/27 19:30:10;;;;;;;5.82;3.10;;;;;;;15.32;100.00;101802.66;10180954;28;20039;-71
2022/06/27 19:35:14;;;;;;;4.03;2.70;;;;;;;15.00;100.00;101789.56;10180720;28;20095;-71
2022/06/27 19:40:14;;;;;;;3.28;2.90;;;;;;;15.40;100.00;101849.34;10184514;28;20124;-71
2022/06/27 19:45:15;;;;;;;4.82;2.47;;;;;;;15.39;100.00;101855.16;10222045;28;20044;-71
2022/06/27 19:50:15;;;;;;;5.13;2.70;;;;;;;15.42;100.00;101869.34;10172926;28;20042;-71
2022/06/27 19:55:16;;;;;;;6.25;2.85;;;;;;;15.34;100.00;101869.81;10204167;28;20043;-72
2022/06/27 20:00:17;;;;;;;5.30;3.85;;;;;;;15.24;100.00;101872.47;10202985;28;20072;-72
2022/06/27 20:05:17;;;;;;;7.00;3.90;;;;;;;15.11;100.00;101887.56;10203381;28;20047;-71
2022/06/27 20:10:19;;;;;;;8.88;4.22;;;;;;;15.06;100.00;101905.00;10186740;28;20039;-71
2022/06/27 20:15:20;;;;;;;6.30;3.95;;;;;;;14.88;100.00;101885.94;10203796;28;20067;-72
2022/06/27 20:20:21;;;;;;;6.38;4.43;;;;;;;14.92;100.00;101907.34;10155257;28;20122;-71
2022/06/27 20:25:22;;;;;;;6.15;4.97;;;;;;;14.83;100.00;101919.16;10163953;29;20092;-72
2022/06/27 20:30:22;;;;;;;7.78;5.03;;;;;;;14.77;100.00;101922.94;10162204;29;20083;-72
2022/06/27 20:35:24;;;;;;;5.20;3.85;;;;;;;14.77;100.00;101939.59;10160214;28;20051;-71
2022/06/27 20:40:25;;;;;;;7.22;3.78;;;;;;;14.75;100.00;101941.78;10163071;29;20068;-71
2022/06/27 20:45:25;;;;;;;4.15;3.20;;;;;;;14.69;100.00;101941.69;10162217;29;20071;-71
2022/06/27 20:50:25;;;;;;;4.95;3.25;;;;;;;14.31;100.00;101885.16;10161233;28;20032;-71
2022/06/27 20:55:26;;;;;;;8.18;4.78;;;;;;;14.48;100.00;101937.75;10160727;29;20043;-72
2022/06/27 21:00:27;;;;;;;8.50;5.07;;;;;;;14.38;100.00;101931.22;10145594;29;20139;-73
2022/06/27 21:05:28;;;;;;;7.63;5.55;;;;;;;14.44;100.00;101947.66;10178925;28;20067;-72
2022/06/27 21:15:48;;;;;;;7.13;5.95;;;;;;;14.29;100.00;101931.66;10213241;28;20050;-71
2022/06/27 21:20:49;;;;;;;10.63;6.38;;;;;;;14.30;100.00;101944.44;10199500;28;20055;-71
2022/06/27 21:26:00;;;;;;;8.82;6.55;;;;;;;14.24;100.00;101947.34;10174330;28;20054;-72
2022/06/27 21:31:00;;;;;;;8.02;7.22;;;;;;;14.11;100.00;101951.31;10164588;28;20066;-72
2022/06/27 21:36:01;;;;;;;14.40;8.50;;;;;;;13.85;100.00;101911.28;10179898;28;20064;-71
2022/06/27 21:41:01;;;;;;;9.80;8.27;;;;;;;14.03;100.00;101938.72;10198462;28;20063;-71
2022/06/27 21:46:02;;;;;;;9.23;8.30;;;;;;;14.16;100.00;101951.41;10198412;28;20120;-72
2022/06/27 21:51:04;;;;;;;14.27;9.07;;;;;;;14.14;100.00;101945.28;10180767;28;20031;-73
2022/06/27 21:56:05;;;;;;;13.15;9.35;;;;;;;14.06;100.00;101946.53;10171679;28;20036;-72
2022/06/27 22:01:06;;;;;;;9.93;8.75;;;;;;;13.96;100.00;101940.00;10174879;28;20047;-71
2022/06/27 22:06:06;;;;;;;18.83;10.60;;;;;;;13.81;100.00;101941.41;10212940;28;20512;-72
2022/06/27 22:11:07;;;;;;;14.77;11.38;;;;;;;13.77;100.00;101943.00;10197750;28;20035;-71
2022/06/27 22:16:08;;;;;;;17.83;11.50;;;;;;;13.69;100.00;101958.06;10211270;28;20071;-71
2022/06/27 22:21:08;;;;;;;15.80;12.25;;;;;;;13.67;100.00;101964.94;10188885;28;20052;-72
2022/06/27 22:26:08;;;;;;;15.52;12.73;;;;;;;13.62;100.00;101965.69;10196013;28;20043;-72
2022/06/27 22:31:09;;;;;;;20.08;13.75;;;;;;;13.63;100.00;101964.59;10166521;28;20051;-72
2022/06/27 22:36:10;;;;;;;20.38;14.35;;;;;;;13.58;100.00;101952.59;10205983;28;20501;-72
2022/06/27 22:41:10;;;;;;;18.42;13.82;;;;;;;13.74;100.00;101965.63;10180594;28;20040;-72
2022/06/27 22:46:11;;;;;;;18.30;14.43;;;;;;;13.65;100.00;101945.00;10195190;28;20077;-71
2022/06/27 22:51:12;;;;;;;20.92;15.73;;;;;;;13.72;100.00;101967.78;10225329;28;20031;-72